Terminal Aerodrome Forecast
Issued by NWS Charleston, WV

Home | Current Version | Previous Version | Text Only | Print | Product List | Glossary On
Versions: 1 2 3 4 5 6 7 8 9 10 11 12 13 14 15 16 17 18 19
000
FTUS41 KRLX 242322
TAFBKW
TAF
KBKW 242322Z 2500/2524 34005KT P6SM BKN060
     FM250500 08003KT P6SM BKN025
     FM250700 12003KT P6SM BKN015
     FM250800 12003KT P6SM BKN007
     FM251400 15004KT P6SM BKN015
     FM251800 VRB05KT P6SM SCT030=

USA.gov is the U.S. government's official web portal to all federal, state and local government web resources and services.